createdAt,value
2023-03-15T00:01:39.627Z,6.00
2023-03-15T00:04:09.010Z,4.90
2023-03-15T00:06:38.379Z,4.20
2023-03-15T00:09:07.977Z,3.60
2023-03-15T00:11:37.292Z,5.30
2023-03-15T00:14:07.295Z,6.90
2023-03-15T00:16:37.663Z,7.40
2023-03-15T00:19:07.324Z,9.20
2023-03-15T00:21:37.036Z,7.50
2023-03-15T00:24:08.047Z,5.50
2023-03-15T00:26:37.967Z,7.40
2023-03-15T00:29:07.485Z,7.70
2023-03-15T00:31:36.851Z,8.30
2023-03-15T00:34:06.244Z,7.40
2023-03-15T00:36:35.581Z,7.40
2023-03-15T00:39:05.258Z,7.30
2023-03-15T00:41:35.623Z,6.40
2023-03-15T00:44:05.616Z,8.10
2023-03-15T00:46:35.249Z,6.90
2023-03-15T00:49:04.700Z,7.40
2023-03-15T00:51:34.480Z,7.30
2023-03-15T00:54:04.083Z,7.80
2023-03-15T00:56:33.365Z,7.60
2023-03-15T00:59:03.855Z,7.20
2023-03-15T01:01:33.301Z,7.60
2023-03-15T01:04:02.624Z,8.00
2023-03-15T01:06:32.010Z,7.90
2023-03-15T01:09:02.154Z,7.00
2023-03-15T01:11:31.795Z,7.40
2023-03-15T01:14:03.022Z,9.80
2023-03-15T01:16:33.693Z,9.00
2023-03-15T01:19:03.086Z,9.70
2023-03-15T01:21:32.677Z,8.30
2023-03-15T01:24:02.093Z,8.20
2023-03-15T01:26:31.814Z,8.80
2023-03-15T01:29:01.105Z,8.40
2023-03-15T01:31:31.243Z,10.40
2023-03-15T01:34:01.198Z,9.10
2023-03-15T01:36:33.668Z,8.80
2023-03-15T01:39:03.022Z,8.30
2023-03-15T01:41:44.324Z,10.30
2023-03-15T01:44:15.411Z,9.20
2023-03-15T01:46:45.620Z,12.20
2023-03-15T01:49:25.544Z,9.20
2023-03-15T01:51:59.649Z,10.10
2023-03-15T01:54:41.695Z,10.90
2023-03-15T01:57:16.490Z,9.70
2023-03-15T01:59:50.567Z,11.50
2023-03-15T02:02:22.131Z,13.80
2023-03-15T02:04:57.819Z,13.60
2023-03-15T02:07:30.314Z,11.40
2023-03-15T02:10:03.692Z,9.90
2023-03-15T02:12:38.421Z,8.20
2023-03-15T02:15:10.971Z,8.90
2023-03-15T02:17:42.890Z,11.70
2023-03-15T02:20:27.914Z,9.80
2023-03-15T02:23:00.450Z,10.00
2023-03-15T02:25:40.960Z,13.50
2023-03-15T02:28:13.155Z,10.10
2023-03-15T02:30:44.721Z,12.00
2023-03-15T02:33:19.304Z,10.30
2023-03-15T02:35:48.699Z,12.50
2023-03-15T02:38:18.746Z,13.70
2023-03-15T02:40:48.841Z,11.40
2023-03-15T02:43:20.530Z,13.30
2023-03-15T02:45:51.084Z,11.90
2023-03-15T02:48:21.328Z,12.70
2023-03-15T02:50:51.325Z,14.00
2023-03-15T02:53:20.662Z,10.50
2023-03-15T02:55:51.308Z,13.60
2023-03-15T02:58:20.733Z,10.70
2023-03-15T03:00:52.436Z,12.70
2023-03-15T03:03:21.670Z,12.10
2023-03-15T03:05:51.094Z,14.50
2023-03-15T03:08:20.467Z,10.30
2023-03-15T03:10:50.010Z,10.90
2023-03-15T03:13:19.537Z,13.00
2023-03-15T03:15:57.950Z,14.00
2023-03-15T03:18:29.926Z,8.90
2023-03-15T03:20:59.926Z,10.80
2023-03-15T03:23:30.142Z,10.80
2023-03-15T03:26:00.786Z,10.80
2023-03-15T03:28:32.609Z,12.90
2023-03-15T03:31:02.730Z,11.20
2023-03-15T03:33:33.030Z,11.70
2023-03-15T03:36:03.882Z,14.90
2023-03-15T03:38:33.296Z,9.60
2023-03-15T03:41:03.519Z,12.90
2023-03-15T03:43:33.506Z,12.60
2023-03-15T03:46:03.206Z,9.40
2023-03-15T03:48:34.334Z,16.40
2023-03-15T03:51:03.917Z,10.30
2023-03-15T03:53:33.353Z,12.90
2023-03-15T03:56:06.044Z,13.70
2023-03-15T03:58:36.770Z,12.90
2023-03-15T04:01:14.161Z,14.30
2023-03-15T04:03:43.590Z,11.90
2023-03-15T04:06:18.474Z,11.00
2023-03-15T04:08:49.345Z,12.00
2023-03-15T04:11:39.111Z,14.70
2023-03-15T04:14:10.111Z,11.40
2023-03-15T04:16:40.001Z,10.60
2023-03-15T04:19:13.086Z,11.40
2023-03-15T04:21:46.621Z,11.50
2023-03-15T04:24:39.461Z,13.00
2023-03-15T04:27:14.051Z,12.70
2023-03-15T04:29:58.136Z,9.60
2023-03-15T04:32:46.123Z,13.40
2023-03-15T04:35:33.008Z,10.90
2023-03-15T04:38:26.074Z,12.20
2023-03-15T04:41:16.324Z,12.50
2023-03-15T04:44:05.264Z,13.30
2023-03-15T04:47:07.643Z,11.10
2023-03-15T04:50:00.336Z,11.30
2023-03-15T04:52:52.500Z,12.50
2023-03-15T04:55:37.606Z,16.60
2023-03-15T04:58:25.689Z,10.70
2023-03-15T05:01:18.620Z,13.50
2023-03-15T05:04:17.448Z,11.20
2023-03-15T05:06:56.499Z,12.00
2023-03-15T05:09:49.125Z,11.40
2023-03-15T05:12:37.031Z,15.40
2023-03-15T05:15:18.833Z,10.60
2023-03-15T05:18:17.580Z,15.50
2023-03-15T05:21:16.316Z,12.70
2023-03-15T05:24:09.095Z,13.10
2023-03-15T05:26:58.704Z,12.90
2023-03-15T05:29:43.388Z,15.30
2023-03-15T05:32:34.024Z,15.90
2023-03-15T05:35:26.146Z,13.20
2023-03-15T05:38:31.365Z,10.70
2023-03-15T05:41:01.381Z,12.60
2023-03-15T05:43:46.195Z,13.20
2023-03-15T05:46:38.426Z,16.50
2023-03-15T05:49:13.961Z,14.90
2023-03-15T05:52:06.837Z,16.30
2023-03-15T05:54:40.264Z,14.00
2023-03-15T05:57:48.050Z,14.00
2023-03-15T06:00:43.807Z,14.30
2023-03-15T06:03:19.691Z,16.20
2023-03-15T06:05:54.300Z,13.30
2023-03-15T06:08:31.317Z,13.90
2023-03-15T06:11:00.751Z,13.80
2023-03-15T06:13:30.165Z,16.20
2023-03-15T06:16:00.462Z,15.50
2023-03-15T06:18:30.533Z,12.30
2023-03-15T06:21:01.431Z,13.20
2023-03-15T06:23:30.754Z,13.20
2023-03-15T06:26:00.295Z,13.00
2023-03-15T06:28:31.258Z,12.40
2023-03-15T06:31:08.576Z,11.70
2023-03-15T06:33:41.949Z,10.50
2023-03-15T06:36:13.717Z,14.70
2023-03-15T06:38:43.407Z,11.30
2023-03-15T06:41:14.840Z,16.50
2023-03-15T06:43:44.311Z,13.70
2023-03-15T06:46:14.310Z,13.10
2023-03-15T06:48:43.967Z,13.60
2023-03-15T06:51:14.008Z,15.40
2023-03-15T06:53:43.932Z,14.50
2023-03-15T06:56:13.238Z,13.00
2023-03-15T06:58:42.548Z,13.60
2023-03-15T07:01:13.919Z,12.20
2023-03-15T07:03:43.579Z,13.60
2023-03-15T07:06:12.925Z,11.20
2023-03-15T07:08:42.246Z,14.30
2023-03-15T07:11:11.564Z,13.30
2023-03-15T07:13:41.173Z,12.70
2023-03-15T07:16:11.354Z,13.40
2023-03-15T07:18:40.609Z,14.60
2023-03-15T07:21:09.914Z,13.10
2023-03-15T07:23:39.180Z,16.60
2023-03-15T07:26:08.517Z,13.20
2023-03-15T07:28:37.934Z,15.70
2023-03-15T07:31:07.578Z,11.30
2023-03-15T07:33:37.667Z,12.50
2023-03-15T07:36:08.437Z,11.00
2023-03-15T07:38:38.549Z,12.50
2023-03-15T07:41:08.404Z,14.90
2023-03-15T07:43:40.337Z,16.10
2023-03-15T07:46:27.869Z,12.80
2023-03-15T07:48:57.144Z,12.40
2023-03-15T07:51:26.594Z,14.40
2023-03-15T07:53:55.847Z,12.80
2023-03-15T07:56:25.124Z,13.70
2023-03-15T07:58:54.410Z,13.60
2023-03-15T08:01:23.702Z,16.00
2023-03-15T08:03:53.078Z,19.30
2023-03-15T08:06:22.798Z,16.80
2023-03-15T08:08:52.116Z,12.30
2023-03-15T08:11:21.420Z,16.40
2023-03-15T08:13:50.693Z,10.90
2023-03-15T08:16:19.974Z,12.00
2023-03-15T08:18:49.226Z,16.10
2023-03-15T08:21:18.522Z,11.70
2023-03-15T08:23:48.197Z,14.10
2023-03-15T08:26:19.119Z,13.30
2023-03-15T08:28:48.387Z,16.50
2023-03-15T08:31:17.719Z,15.70
2023-03-15T08:33:47.913Z,12.70
2023-03-15T08:36:17.395Z,12.60
2023-03-15T08:38:46.767Z,17.30
2023-03-15T08:41:16.045Z,15.20
2023-03-15T08:43:45.371Z,13.40
2023-03-15T08:46:14.962Z,13.30
2023-03-15T08:48:44.299Z,11.10
2023-03-15T08:51:14.301Z,15.30
2023-03-15T08:53:43.599Z,13.20
2023-03-15T08:56:13.104Z,19.10
2023-03-15T08:58:42.448Z,69.00
2023-03-15T09:01:13.515Z,18.20
2023-03-15T09:03:43.571Z,14.10
2023-03-15T09:06:13.078Z,15.30
2023-03-15T09:08:42.389Z,12.60
2023-03-15T09:11:11.762Z,13.00
2023-03-15T09:13:41.337Z,10.60
2023-03-15T09:16:10.638Z,15.30
2023-03-15T09:18:40.968Z,14.10
2023-03-15T09:21:10.695Z,19.30
2023-03-15T09:23:40.043Z,18.90
2023-03-15T09:26:09.417Z,19.20
2023-03-15T09:28:38.728Z,19.30
2023-03-15T09:31:08.446Z,16.30
2023-03-15T09:33:37.838Z,13.70
2023-03-15T09:36:07.817Z,28.30
2023-03-15T09:38:37.150Z,16.60
2023-03-15T09:41:06.804Z,12.80
2023-03-15T09:43:57.944Z,15.60
2023-03-15T09:46:33.194Z,13.30
2023-03-15T09:49:09.634Z,28.50
2023-03-15T09:51:47.449Z,12.50
2023-03-15T09:54:20.843Z,43.50
2023-03-15T09:56:56.732Z,15.20
2023-03-15T09:59:30.627Z,16.80
2023-03-15T10:02:15.015Z,23.60
2023-03-15T10:04:47.156Z,29.80
2023-03-15T10:07:16.945Z,20.30
2023-03-15T10:09:47.024Z,18.10
2023-03-15T10:12:23.577Z,37.40
2023-03-15T10:15:23.714Z,38.70
2023-03-15T10:18:14.848Z,17.90
2023-03-15T10:20:53.733Z,16.20
2023-03-15T10:23:28.914Z,15.90
2023-03-15T10:25:58.556Z,22.60
2023-03-15T10:28:33.863Z,21.10
2023-03-15T10:31:21.541Z,31.30
2023-03-15T10:33:56.917Z,18.10
2023-03-15T10:36:26.554Z,15.10
2023-03-15T10:38:57.389Z,25.40
2023-03-15T10:41:36.592Z,10.70
2023-03-15T10:44:07.887Z,13.60
2023-03-15T10:46:37.225Z,13.60
2023-03-15T10:49:12.203Z,11.40
2023-03-15T10:51:44.936Z,10.50
2023-03-15T10:54:16.940Z,12.60
2023-03-15T10:56:48.622Z,16.30
2023-03-15T10:59:20.119Z,12.10
2023-03-15T11:01:51.529Z,9.20
2023-03-15T11:04:22.710Z,12.50
2023-03-15T11:07:02.692Z,9.70
2023-03-15T11:09:40.659Z,13.30
2023-03-15T11:12:18.270Z,10.20
2023-03-15T11:14:50.949Z,10.00
2023-03-15T11:17:22.834Z,12.90
2023-03-15T11:19:56.906Z,12.20
2023-03-15T11:22:26.315Z,12.80
2023-03-15T11:24:55.886Z,14.00
2023-03-15T11:27:26.276Z,9.50
2023-03-15T11:29:59.933Z,11.10
2023-03-15T11:32:32.016Z,8.50
2023-03-15T11:35:04.765Z,10.30
2023-03-15T11:37:39.167Z,13.30
2023-03-15T11:40:17.530Z,13.40
2023-03-15T11:42:54.266Z,9.30
2023-03-15T11:45:34.224Z,10.90
2023-03-15T11:48:28.767Z,11.50
2023-03-15T11:50:59.278Z,11.80
2023-03-15T11:53:34.265Z,9.20
2023-03-15T11:56:22.274Z,10.10
2023-03-15T11:59:06.554Z,12.00
2023-03-15T12:01:37.189Z,10.70
2023-03-15T12:04:42.610Z,13.20
2023-03-15T12:07:38.584Z,30.50
2023-03-15T12:10:33.740Z,33.70
2023-03-15T12:13:18.633Z,138.30
2023-03-15T12:15:50.997Z,97.50
2023-03-15T12:18:32.981Z,33.40
2023-03-15T12:21:18.229Z,19.20
2023-03-15T12:23:57.020Z,10.20
2023-03-15T12:26:41.109Z,10.00
2023-03-15T12:29:16.954Z,11.90
2023-03-15T12:32:04.135Z,12.30
2023-03-15T12:34:44.218Z,10.80
2023-03-15T12:37:19.045Z,10.60
2023-03-15T12:39:51.654Z,11.60
2023-03-15T12:43:08.864Z,13.00
2023-03-15T12:45:49.190Z,11.20
2023-03-15T12:48:23.817Z,9.80
2023-03-15T12:51:04.784Z,7.00
2023-03-15T12:53:44.773Z,11.30
2023-03-15T12:56:42.175Z,14.40
2023-03-15T12:59:27.199Z,25.70
2023-03-15T13:01:58.640Z,21.40
2023-03-15T13:04:29.901Z,18.20
2023-03-15T13:07:36.847Z,13.60
2023-03-15T13:10:31.403Z,13.60
2023-03-15T13:13:08.056Z,17.60
2023-03-15T13:15:43.141Z,15.90
2023-03-15T13:18:17.716Z,15.20
2023-03-15T13:20:57.626Z,9.80
2023-03-15T13:23:30.362Z,14.40
2023-03-15T13:26:32.701Z,11.40
2023-03-15T13:29:10.098Z,10.70
2023-03-15T13:31:39.638Z,9.40
2023-03-15T13:34:15.993Z,12.30
2023-03-15T13:36:47.652Z,13.20
2023-03-15T13:39:22.567Z,10.40
2023-03-15T13:41:58.447Z,12.10
2023-03-15T13:44:29.010Z,13.40
2023-03-15T13:46:59.675Z,11.70
2023-03-15T13:49:33.620Z,10.90
2023-03-15T13:52:14.255Z,10.20
2023-03-15T13:54:45.184Z,10.80
2023-03-15T13:57:16.709Z,7.60
2023-03-15T13:59:52.061Z,8.60
2023-03-15T14:02:25.069Z,9.00
2023-03-15T14:04:58.570Z,8.10
2023-03-15T14:07:33.068Z,10.40
2023-03-15T14:10:25.383Z,9.80
2023-03-15T14:12:55.824Z,10.00
2023-03-15T14:15:34.116Z,8.50
2023-03-15T14:18:16.515Z,10.60
2023-03-15T14:20:52.353Z,10.70
2023-03-15T14:23:25.299Z,12.80
2023-03-15T14:25:56.315Z,11.80
2023-03-15T14:28:25.707Z,8.50
2023-03-15T14:30:56.987Z,12.10
2023-03-15T14:33:32.317Z,8.80
2023-03-15T14:36:04.072Z,9.10
2023-03-15T14:38:35.461Z,10.10
2023-03-15T14:41:32.439Z,5.60
2023-03-15T14:44:02.886Z,9.30
2023-03-15T14:46:32.772Z,8.70
2023-03-15T14:49:02.612Z,9.60
2023-03-15T14:51:32.686Z,6.90
2023-03-15T14:54:02.116Z,7.90
2023-03-15T14:56:31.527Z,9.90
2023-03-15T14:59:03.339Z,6.90
2023-03-15T15:01:32.948Z,7.30
2023-03-15T15:04:04.219Z,8.00
2023-03-15T15:06:36.214Z,8.60
2023-03-15T15:09:06.321Z,10.30
2023-03-15T15:11:35.741Z,9.80
2023-03-15T15:14:12.124Z,9.80
2023-03-15T15:16:41.728Z,8.60
2023-03-15T15:19:12.125Z,14.40
2023-03-15T15:21:42.205Z,11.80
2023-03-15T15:24:17.099Z,10.80
2023-03-15T15:26:47.051Z,12.40
2023-03-15T15:29:17.824Z,15.20
2023-03-15T15:31:47.275Z,12.60
2023-03-15T15:34:16.659Z,12.20
2023-03-15T15:36:46.411Z,11.50
2023-03-15T15:39:21.286Z,12.20
2023-03-15T15:41:50.611Z,21.00
2023-03-15T15:44:21.584Z,12.20
2023-03-15T15:46:50.973Z,11.10
2023-03-15T15:49:20.494Z,14.40
2023-03-15T15:51:50.923Z,12.00
2023-03-15T15:54:22.904Z,10.00
2023-03-15T15:56:54.770Z,10.20
2023-03-15T15:59:25.026Z,9.80
2023-03-15T16:02:00.991Z,9.30
2023-03-15T16:04:32.362Z,10.80
2023-03-15T16:07:03.261Z,10.90
2023-03-15T16:09:35.443Z,9.90
2023-03-15T16:12:13.503Z,10.80
2023-03-15T16:14:43.073Z,12.80
2023-03-15T16:17:17.233Z,12.60
2023-03-15T16:19:46.574Z,11.40
2023-03-15T16:22:17.277Z,10.50
2023-03-15T16:24:50.357Z,10.40
2023-03-15T16:27:23.256Z,9.80
2023-03-15T16:29:55.187Z,10.10
2023-03-15T16:32:41.084Z,10.60
2023-03-15T16:35:14.782Z,11.70
2023-03-15T16:37:46.015Z,10.90
2023-03-15T16:40:21.830Z,8.60
2023-03-15T16:42:51.165Z,11.60
2023-03-15T16:45:21.354Z,11.60
2023-03-15T16:47:51.085Z,11.70
2023-03-15T16:50:20.876Z,14.20
2023-03-15T16:52:53.156Z,14.90
2023-03-15T16:55:26.444Z,15.60
2023-03-15T16:57:56.390Z,18.50
2023-03-15T17:00:26.500Z,18.60
2023-03-15T17:02:59.335Z,19.20
2023-03-15T17:05:31.661Z,23.30
2023-03-15T17:08:02.170Z,15.70
2023-03-15T17:10:32.932Z,14.10
2023-03-15T17:13:03.322Z,12.70
2023-03-15T17:15:33.159Z,15.80
2023-03-15T17:18:02.755Z,21.90
2023-03-15T17:20:33.669Z,20.10
2023-03-15T17:23:05.088Z,21.70
2023-03-15T17:25:35.351Z,31.60
2023-03-15T17:28:06.044Z,29.10
2023-03-15T17:30:37.992Z,27.10
2023-03-15T17:33:07.980Z,34.40
2023-03-15T17:35:41.606Z,22.30
2023-03-15T17:38:19.534Z,26.60
2023-03-15T17:40:49.990Z,23.80
2023-03-15T17:43:19.697Z,22.40
2023-03-15T17:45:49.087Z,18.60
2023-03-15T17:48:18.628Z,15.30
2023-03-15T17:50:48.587Z,13.80
2023-03-15T17:53:20.617Z,14.30
2023-03-15T17:55:53.076Z,16.20
2023-03-15T17:58:25.962Z,15.10
2023-03-15T18:00:56.065Z,13.80
2023-03-15T18:03:26.932Z,14.80
2023-03-15T18:05:57.159Z,20.90
2023-03-15T18:08:27.255Z,18.20
2023-03-15T18:10:57.951Z,18.80
2023-03-15T18:13:29.451Z,20.30
2023-03-15T18:15:59.495Z,21.10
2023-03-15T18:18:29.099Z,25.20
2023-03-15T18:20:58.907Z,24.70
2023-03-15T18:23:28.788Z,24.20
2023-03-15T18:25:59.077Z,25.10
2023-03-15T18:28:28.746Z,42.80
2023-03-15T18:30:58.304Z,40.30
2023-03-15T18:33:27.939Z,39.70
2023-03-15T18:35:57.421Z,30.00
2023-03-15T18:38:26.852Z,25.30
2023-03-15T18:40:56.945Z,25.50
2023-03-15T18:43:26.587Z,26.00
2023-03-15T18:45:56.306Z,20.10
2023-03-15T18:48:39.739Z,20.00
2023-03-15T18:51:12.167Z,18.50
2023-03-15T18:53:43.132Z,23.70
2023-03-15T18:56:18.741Z,23.60
2023-03-15T18:58:50.241Z,20.90
2023-03-15T19:01:22.315Z,20.70
2023-03-15T19:03:52.405Z,22.70
2023-03-15T19:06:22.381Z,23.80
2023-03-15T19:08:53.700Z,26.20
2023-03-15T19:11:24.673Z,28.70
2023-03-15T19:13:54.006Z,31.00
2023-03-15T19:16:24.007Z,39.20
2023-03-15T19:18:54.740Z,37.00
2023-03-15T19:21:25.759Z,42.40
2023-03-15T19:23:57.163Z,42.90
2023-03-15T19:26:27.585Z,42.90
2023-03-15T19:28:56.948Z,37.00
2023-03-15T19:31:26.428Z,37.80
2023-03-15T19:33:55.840Z,40.10
2023-03-15T19:36:25.478Z,35.00
2023-03-15T19:38:54.802Z,35.20
2023-03-15T19:41:24.167Z,37.70
2023-03-15T19:43:53.498Z,30.20
2023-03-15T19:46:22.960Z,30.10
2023-03-15T19:48:52.609Z,33.80
2023-03-15T19:51:22.105Z,40.30
2023-03-15T19:53:51.514Z,32.10
2023-03-15T19:56:21.111Z,34.30
2023-03-15T19:58:50.764Z,34.20
2023-03-15T20:01:20.129Z,34.30
2023-03-15T20:03:49.551Z,32.20
2023-03-15T20:06:18.896Z,32.70
2023-03-15T20:08:48.215Z,36.10
2023-03-15T20:11:24.447Z,33.60
2023-03-15T20:13:54.155Z,33.60
2023-03-15T20:16:23.950Z,31.00
2023-03-15T20:18:55.223Z,30.90
2023-03-15T20:21:24.779Z,28.90
2023-03-15T20:23:54.178Z,28.60
2023-03-15T20:26:24.630Z,30.40
2023-03-15T20:28:54.054Z,31.10
2023-03-15T20:31:23.396Z,24.00
2023-03-15T20:33:52.857Z,23.80
2023-03-15T20:36:22.368Z,20.60
2023-03-15T20:38:51.732Z,17.80
2023-03-15T20:41:21.261Z,18.40
2023-03-15T20:43:51.084Z,19.20
2023-03-15T20:46:22.200Z,16.80
2023-03-15T20:48:52.213Z,18.90
2023-03-15T20:51:21.900Z,24.20
2023-03-15T20:53:51.344Z,19.70
2023-03-15T20:56:21.378Z,21.50
2023-03-15T20:58:50.761Z,22.80
2023-03-15T21:01:20.230Z,24.30
2023-03-15T21:03:49.620Z,26.20
2023-03-15T21:06:19.013Z,29.80
2023-03-15T21:08:48.710Z,32.20
2023-03-15T21:11:18.014Z,37.60
2023-03-15T21:13:47.660Z,38.80
2023-03-15T21:16:17.665Z,37.90
2023-03-15T21:18:51.241Z,40.70
2023-03-15T21:21:21.226Z,39.80
2023-03-15T21:23:50.505Z,36.80
2023-03-15T21:26:19.871Z,34.80
2023-03-15T21:28:50.102Z,30.50
2023-03-15T21:31:19.619Z,30.20
2023-03-15T21:33:50.754Z,30.20
2023-03-15T21:36:20.354Z,34.50
2023-03-15T21:38:49.729Z,32.90
2023-03-15T21:41:19.018Z,37.70
2023-03-15T21:43:48.326Z,34.30
2023-03-15T21:46:17.719Z,32.40
2023-03-15T21:48:47.244Z,32.90
2023-03-15T21:51:16.875Z,33.80
2023-03-15T21:53:46.152Z,36.90
2023-03-15T21:56:15.491Z,33.90
2023-03-15T21:58:44.826Z,33.90
2023-03-15T22:01:15.232Z,36.10
2023-03-15T22:03:44.689Z,37.30
2023-03-15T22:06:13.984Z,27.80
2023-03-15T22:08:43.571Z,22.90
2023-03-15T22:11:13.221Z,23.20
2023-03-15T22:13:42.593Z,19.20
2023-03-15T22:16:12.863Z,16.30
2023-03-15T22:18:42.138Z,15.30
2023-03-15T22:21:11.479Z,15.70
2023-03-15T22:23:40.753Z,15.80
2023-03-15T22:26:10.478Z,16.20
2023-03-15T22:28:40.418Z,16.40
2023-03-15T22:31:11.580Z,16.80
2023-03-15T22:33:40.936Z,15.10
2023-03-15T22:36:10.864Z,20.80
2023-03-15T22:38:40.764Z,20.20
2023-03-15T22:41:14.213Z,19.90
2023-03-15T22:43:44.925Z,19.50
2023-03-15T22:46:14.859Z,20.90
2023-03-15T22:48:44.211Z,21.20
2023-03-15T22:51:17.127Z,31.70
2023-03-15T22:53:46.397Z,21.20
2023-03-15T22:56:15.679Z,19.50
2023-03-15T22:58:47.186Z,21.90
2023-03-15T23:01:16.514Z,20.20
2023-03-15T23:03:46.472Z,21.90
2023-03-15T23:06:15.782Z,20.50
2023-03-15T23:08:45.413Z,16.40
2023-03-15T23:11:15.827Z,19.10
2023-03-15T23:13:47.814Z,21.60
2023-03-15T23:16:17.634Z,23.50
2023-03-15T23:18:49.094Z,25.30
2023-03-15T23:21:18.531Z,21.60
2023-03-15T23:23:47.861Z,18.70
2023-03-15T23:26:19.622Z,18.50
2023-03-15T23:28:49.953Z,19.10
2023-03-15T23:31:19.395Z,17.80
2023-03-15T23:33:48.640Z,18.10
2023-03-15T23:36:18.878Z,19.50
2023-03-15T23:38:48.999Z,18.00
2023-03-15T23:41:18.390Z,16.40
2023-03-15T23:43:47.686Z,21.80
2023-03-15T23:46:17.192Z,20.70
2023-03-15T23:48:47.228Z,20.30
2023-03-15T23:51:16.635Z,17.40
2023-03-15T23:53:45.945Z,18.70
2023-03-15T23:56:15.769Z,18.90
2023-03-15T23:58:44.992Z,19.00
